createdAt,value
2018-09-16T00:01:27.089Z,78.20
2018-09-16T00:03:54.054Z,78.95
2018-09-16T00:06:21.039Z,78.27
2018-09-16T00:08:47.967Z,77.40
2018-09-16T00:11:14.927Z,78.61
2018-09-16T00:13:41.887Z,78.44
2018-09-16T00:16:08.768Z,78.33
2018-09-16T00:18:35.816Z,77.65
2018-09-16T00:21:02.783Z,77.43
2018-09-16T00:23:29.735Z,77.90
2018-09-16T00:25:56.666Z,78.49
2018-09-16T00:28:23.619Z,78.16
2018-09-16T00:30:50.575Z,77.36
2018-09-16T00:33:17.575Z,77.47
2018-09-16T00:35:44.506Z,78.03
2018-09-16T00:38:11.458Z,78.42
2018-09-16T00:40:38.423Z,77.91
2018-09-16T00:43:05.379Z,78.08
2018-09-16T00:45:32.326Z,78.25
2018-09-16T00:47:59.287Z,78.49
2018-09-16T00:50:26.256Z,78.47
2018-09-16T00:52:53.210Z,78.61
2018-09-16T00:55:20.164Z,78.84
2018-09-16T00:57:47.152Z,78.76
2018-09-16T01:00:14.071Z,76.45
2018-09-16T01:02:40.919Z,78.90
2018-09-16T01:05:08.848Z,78.76
2018-09-16T01:07:35.799Z,80.02
2018-09-16T01:10:02.749Z,80.84
2018-09-16T01:12:29.603Z,80.72
2018-09-16T01:14:56.543Z,80.50
2018-09-16T01:17:23.495Z,80.86
2018-09-16T01:19:50.480Z,81.10
2018-09-16T01:22:17.495Z,81.97
2018-09-16T01:24:44.414Z,82.03
2018-09-16T01:27:11.338Z,82.42
2018-09-16T01:29:38.319Z,82.58
2018-09-16T01:32:05.373Z,81.32
2018-09-16T01:34:32.285Z,81.65
2018-09-16T01:36:59.279Z,80.26
2018-09-16T01:39:27.526Z,82.62
2018-09-16T01:41:54.796Z,83.01
2018-09-16T01:44:21.655Z,83.58
2018-09-16T01:46:48.527Z,83.33
2018-09-16T01:49:15.475Z,83.34
2018-09-16T01:51:42.439Z,83.82
2018-09-16T01:54:09.396Z,84.01
2018-09-16T01:56:36.251Z,83.21
2018-09-16T01:59:03.307Z,83.98
2018-09-16T02:01:30.285Z,83.85
2018-09-16T02:03:57.243Z,84.07
2018-09-16T02:06:24.167Z,83.41
2018-09-16T02:08:51.044Z,83.16
2018-09-16T02:11:17.990Z,83.68
2018-09-16T02:13:44.962Z,83.80
2018-09-16T02:16:11.900Z,84.22
2018-09-16T02:18:38.743Z,82.92
2018-09-16T02:21:05.632Z,81.87
2018-09-16T02:23:32.621Z,84.07
2018-09-16T02:25:59.535Z,83.54
2018-09-16T02:28:26.512Z,85.04
2018-09-16T02:30:53.398Z,85.66
2018-09-16T02:33:20.303Z,85.52
2018-09-16T02:35:47.268Z,85.20
2018-09-16T02:38:14.219Z,85.21
2018-09-16T02:40:41.178Z,84.13
2018-09-16T02:43:08.041Z,85.75
2018-09-16T02:45:35.023Z,85.40
2018-09-16T02:48:01.948Z,85.65
2018-09-16T02:50:28.904Z,85.47
2018-09-16T02:52:55.796Z,84.77
2018-09-16T02:55:22.715Z,85.58
2018-09-16T02:57:49.671Z,85.65
2018-09-16T03:00:16.655Z,84.90
2018-09-16T03:02:43.540Z,84.91
2018-09-16T03:05:10.447Z,84.52
2018-09-16T03:07:37.404Z,84.12
2018-09-16T03:10:05.203Z,83.04
2018-09-16T03:12:32.132Z,83.18
2018-09-16T03:14:59.163Z,84.82
2018-09-16T03:17:26.060Z,84.37
2018-09-16T03:19:53.006Z,84.47
2018-09-16T03:22:19.958Z,85.32
2018-09-16T03:24:46.803Z,85.95
2018-09-16T03:27:13.675Z,84.96
2018-09-16T03:29:40.632Z,85.57
2018-09-16T03:32:07.624Z,86.36
2018-09-16T03:34:34.480Z,87.02
2018-09-16T03:37:01.428Z,87.31
2018-09-16T03:39:28.399Z,87.02
2018-09-16T03:41:55.426Z,85.73
2018-09-16T03:44:22.387Z,85.95
2018-09-16T03:46:49.241Z,86.70
2018-09-16T03:49:16.191Z,87.29
2018-09-16T03:51:43.141Z,86.75
2018-09-16T03:54:10.107Z,86.29
2018-09-16T03:56:36.981Z,86.11
2018-09-16T03:59:03.943Z,87.31
2018-09-16T04:01:30.879Z,87.37
2018-09-16T04:03:57.831Z,86.98
2018-09-16T04:06:24.816Z,86.06
2018-09-16T04:08:52.774Z,85.10
2018-09-16T04:11:19.728Z,84.76
2018-09-16T04:13:46.759Z,85.41
2018-09-16T04:16:13.643Z,83.92
2018-09-16T04:18:40.604Z,83.73
2018-09-16T04:21:07.622Z,82.47
2018-09-16T04:23:42.319Z,82.39
2018-09-16T04:26:09.293Z,82.41
2018-09-16T04:28:36.148Z,82.64
2018-09-16T04:31:03.090Z,82.26
2018-09-16T04:33:30.082Z,82.65
2018-09-16T04:35:57.178Z,81.66
2018-09-16T04:38:24.203Z,83.09
2018-09-16T04:40:51.099Z,82.98
2018-09-16T04:43:18.067Z,82.11
2018-09-16T04:45:45.013Z,82.25
2018-09-16T04:48:11.996Z,81.40
2018-09-16T04:50:38.855Z,82.65
2018-09-16T04:53:05.804Z,81.94
2018-09-16T04:55:32.750Z,82.01
2018-09-16T04:57:59.734Z,82.22
2018-09-16T05:00:26.681Z,82.43
2018-09-16T05:02:53.534Z,81.91
2018-09-16T05:05:20.527Z,81.87
2018-09-16T05:07:47.434Z,82.10
2018-09-16T05:10:14.375Z,82.31
2018-09-16T05:12:41.247Z,82.69
2018-09-16T05:15:08.203Z,82.86
2018-09-16T05:17:35.163Z,83.07
2018-09-16T05:20:02.171Z,83.20
2018-09-16T05:22:29.127Z,82.34
2018-09-16T05:24:56.047Z,82.34
2018-09-16T05:27:22.979Z,82.87
2018-09-16T05:29:49.939Z,82.94
2018-09-16T05:32:16.938Z,84.09
2018-09-16T05:34:43.864Z,84.76
2018-09-16T05:37:11.734Z,84.45
2018-09-16T05:39:38.700Z,84.71
2018-09-16T05:42:05.647Z,84.18
2018-09-16T05:44:32.604Z,84.12
2018-09-16T05:46:59.571Z,83.90
2018-09-16T05:49:26.522Z,84.56
2018-09-16T05:51:53.484Z,84.23
2018-09-16T05:54:20.463Z,84.38
2018-09-16T05:56:47.398Z,83.87
2018-09-16T05:59:14.373Z,83.70
2018-09-16T06:01:41.304Z,84.18
2018-09-16T06:04:08.295Z,83.56
2018-09-16T06:06:35.236Z,83.40
2018-09-16T06:09:02.273Z,83.08
2018-09-16T06:11:29.141Z,82.95
2018-09-16T06:13:56.387Z,82.09
2018-09-16T06:16:24.083Z,82.14
2018-09-16T06:18:51.036Z,82.07
2018-09-16T06:21:18.028Z,82.11
2018-09-16T06:23:48.165Z,81.10
2018-09-16T06:26:15.284Z,81.30
2018-09-16T06:28:42.212Z,80.59
2018-09-16T06:31:09.164Z,80.29
2018-09-16T06:33:36.076Z,79.35
2018-09-16T06:36:03.532Z,78.52
2018-09-16T06:38:31.404Z,78.93
2018-09-16T06:40:58.364Z,76.89
2018-09-16T06:43:26.789Z,76.93
2018-09-16T06:45:53.855Z,76.13
2018-09-16T06:48:20.811Z,76.98
2018-09-16T06:50:48.919Z,76.90
2018-09-16T06:53:15.871Z,75.71
2018-09-16T06:55:44.844Z,75.84
2018-09-16T06:58:13.790Z,74.44
2018-09-16T07:00:40.697Z,74.78
2018-09-16T07:03:07.652Z,75.41
2018-09-16T07:05:34.621Z,74.12
2018-09-16T07:08:01.593Z,73.62
2018-09-16T07:10:29.582Z,74.21
2018-09-16T07:12:57.110Z,74.16
2018-09-16T07:15:24.067Z,72.32
2018-09-16T07:17:51.011Z,72.48
2018-09-16T07:20:18.100Z,72.25
2018-09-16T07:22:45.011Z,70.70
2018-09-16T07:25:11.911Z,71.83
2018-09-16T07:27:38.869Z,70.15
2018-09-16T07:30:05.739Z,71.08
2018-09-16T07:32:32.699Z,70.03
2018-09-16T07:34:59.660Z,69.71
2018-09-16T07:37:26.631Z,67.49
2018-09-16T07:39:53.539Z,67.75
2018-09-16T07:42:20.487Z,67.13
2018-09-16T07:44:47.651Z,65.34
2018-09-16T07:47:14.549Z,65.82
2018-09-16T07:49:41.492Z,64.14
2018-09-16T07:52:08.628Z,64.03
2018-09-16T07:54:35.511Z,64.18
2018-09-16T07:57:04.039Z,63.62
2018-09-16T07:59:32.995Z,63.28
2018-09-16T08:02:00.014Z,62.67
2018-09-16T08:04:26.967Z,63.61
2018-09-16T08:06:53.881Z,61.48
2018-09-16T08:09:20.978Z,63.18
2018-09-16T08:11:47.999Z,61.65
2018-09-16T08:14:15.674Z,61.83
2018-09-16T08:16:42.559Z,61.06
2018-09-16T08:19:09.520Z,60.91
2018-09-16T08:21:36.424Z,60.64
2018-09-16T08:24:03.396Z,58.23
2018-09-16T08:26:30.252Z,58.41
2018-09-16T08:28:57.274Z,58.53
2018-09-16T08:31:24.243Z,59.08
2018-09-16T08:33:51.224Z,58.57
2018-09-16T08:36:18.199Z,59.07
2018-09-16T08:38:45.123Z,57.86
2018-09-16T08:41:12.123Z,56.30
2018-09-16T08:43:39.052Z,56.94
2018-09-16T08:46:06.057Z,55.52
2018-09-16T08:48:32.968Z,56.27
2018-09-16T08:50:59.903Z,55.66
2018-09-16T08:53:26.868Z,55.70
2018-09-16T08:55:54.751Z,53.78
2018-09-16T08:58:21.694Z,54.03
2018-09-16T09:00:48.558Z,53.63
2018-09-16T09:03:15.507Z,52.99
2018-09-16T09:05:42.471Z,53.80
2018-09-16T09:08:09.504Z,52.21
2018-09-16T09:10:36.381Z,52.28
2018-09-16T09:13:03.351Z,51.30
2018-09-16T09:15:30.299Z,49.59
2018-09-16T09:17:57.299Z,50.69
2018-09-16T09:20:24.152Z,50.00
2018-09-16T09:22:51.090Z,48.85
2018-09-16T09:25:18.029Z,49.38
2018-09-16T09:27:45.048Z,49.36
2018-09-16T09:30:13.044Z,49.83
2018-09-16T09:32:39.923Z,46.86
2018-09-16T09:35:06.924Z,47.83
2018-09-16T09:37:33.839Z,45.83
2018-09-16T09:40:00.822Z,45.95
2018-09-16T09:42:27.688Z,44.67
2018-09-16T09:44:55.651Z,45.18
2018-09-16T09:47:23.643Z,45.16
2018-09-16T09:49:50.599Z,43.08
2018-09-16T09:52:17.463Z,44.23
2018-09-16T09:54:44.383Z,44.08
2018-09-16T09:57:11.403Z,44.31
2018-09-16T09:59:38.300Z,43.45
2018-09-16T10:02:05.268Z,42.73
2018-09-16T10:04:32.243Z,43.76
2018-09-16T10:07:01.015Z,42.89
2018-09-16T10:09:28.320Z,42.34
2018-09-16T10:11:55.251Z,43.37
2018-09-16T10:14:22.187Z,44.09
2018-09-16T10:16:49.056Z,44.33
2018-09-16T10:19:16.017Z,43.44
2018-09-16T10:21:42.977Z,43.92
2018-09-16T10:24:09.979Z,42.38
2018-09-16T10:26:36.824Z,42.36
2018-09-16T10:29:03.750Z,42.05
2018-09-16T10:31:30.720Z,41.96
2018-09-16T10:33:57.683Z,42.75
2018-09-16T10:36:24.541Z,43.08
2018-09-16T10:38:51.514Z,41.30
2018-09-16T10:41:18.463Z,43.03
2018-09-16T10:43:45.422Z,44.81
2018-09-16T10:46:12.387Z,43.57
2018-09-16T10:48:39.307Z,42.48
2018-09-16T10:51:06.283Z,42.83
2018-09-16T10:53:33.247Z,40.95
2018-09-16T10:56:00.134Z,42.74
2018-09-16T10:58:27.079Z,41.71
2018-09-16T11:00:53.987Z,40.66
2018-09-16T11:03:20.928Z,41.62
2018-09-16T11:05:47.827Z,41.50
2018-09-16T11:08:14.813Z,42.01
2018-09-16T11:10:41.751Z,42.37
2018-09-16T11:13:08.695Z,42.42
2018-09-16T11:15:35.647Z,40.51
2018-09-16T11:18:02.641Z,41.14
2018-09-16T11:20:29.552Z,41.19
2018-09-16T11:22:56.510Z,41.85
2018-09-16T11:25:23.504Z,43.08
2018-09-16T11:27:50.483Z,42.29
2018-09-16T11:30:17.395Z,41.58
2018-09-16T11:32:44.348Z,41.68
2018-09-16T11:35:11.284Z,40.54
2018-09-16T11:37:38.279Z,40.55
2018-09-16T11:40:05.303Z,40.89
2018-09-16T11:42:32.267Z,39.96
2018-09-16T11:44:59.244Z,39.15
2018-09-16T11:47:28.512Z,39.25
2018-09-16T11:49:55.443Z,38.25
2018-09-16T11:52:22.387Z,39.69
2018-09-16T11:54:49.360Z,38.92
2018-09-16T11:57:16.284Z,39.64
2018-09-16T11:59:43.343Z,38.96
2018-09-16T12:02:10.274Z,40.12
2018-09-16T12:04:37.493Z,39.82
2018-09-16T12:07:12.180Z,41.34
2018-09-16T12:09:39.325Z,41.24
2018-09-16T12:12:06.312Z,40.48
2018-09-16T12:14:34.761Z,41.33
2018-09-16T12:17:01.727Z,39.46
2018-09-16T12:19:32.916Z,41.15
2018-09-16T12:22:00.341Z,38.58
2018-09-16T12:24:35.060Z,39.32
2018-09-16T12:27:04.236Z,37.63
2018-09-16T12:29:31.183Z,39.14
2018-09-16T12:31:58.404Z,39.81
2018-09-16T12:34:25.299Z,39.46
2018-09-16T12:36:52.641Z,38.08
2018-09-16T12:39:19.556Z,38.51
2018-09-16T12:41:47.225Z,36.95
2018-09-16T12:44:14.175Z,37.01
2018-09-16T12:46:42.143Z,37.62
2018-09-16T12:49:16.687Z,36.43
2018-09-16T12:51:43.647Z,36.88
2018-09-16T12:54:10.590Z,37.80
2018-09-16T12:56:37.561Z,37.94
2018-09-16T12:59:05.552Z,37.95
2018-09-16T13:01:34.486Z,38.84
2018-09-16T13:04:01.412Z,38.65
2018-09-16T13:06:29.388Z,37.91
2018-09-16T13:08:57.355Z,37.63
2018-09-16T13:11:24.319Z,37.36
2018-09-16T13:13:51.597Z,36.08
2018-09-16T13:16:18.556Z,36.31
2018-09-16T13:18:45.506Z,36.40
2018-09-16T13:21:12.435Z,37.09
2018-09-16T13:23:39.416Z,35.60
2018-09-16T13:26:06.291Z,35.79
2018-09-16T13:28:35.192Z,35.87
2018-09-16T13:31:02.118Z,36.36
2018-09-16T13:33:29.080Z,36.12
2018-09-16T13:35:56.027Z,36.99
2018-09-16T13:38:23.052Z,36.84
2018-09-16T13:40:49.979Z,35.77
2018-09-16T13:43:16.943Z,37.60
2018-09-16T13:45:43.900Z,34.98
2018-09-16T13:48:10.734Z,36.87
2018-09-16T13:50:37.726Z,37.29
2018-09-16T13:53:04.635Z,36.26
2018-09-16T13:55:31.772Z,35.68
2018-09-16T13:57:58.678Z,36.06
2018-09-16T14:00:25.618Z,36.63
2018-09-16T14:02:52.583Z,36.68
2018-09-16T14:05:19.520Z,36.71
2018-09-16T14:07:46.493Z,35.02
2018-09-16T14:10:13.428Z,35.14
2018-09-16T14:12:40.395Z,35.21
2018-09-16T14:15:07.343Z,36.30
2018-09-16T14:17:34.331Z,36.75
2018-09-16T14:20:01.278Z,35.64
2018-09-16T14:22:28.364Z,37.72
2018-09-16T14:24:55.276Z,35.10
2018-09-16T14:27:22.235Z,34.62
2018-09-16T14:29:49.203Z,34.63
2018-09-16T14:32:16.154Z,34.98
2018-09-16T14:34:43.132Z,34.46
2018-09-16T14:37:10.088Z,35.46
2018-09-16T14:39:37.027Z,34.73
2018-09-16T14:42:03.912Z,35.67
2018-09-16T14:44:30.923Z,34.63
2018-09-16T14:46:58.782Z,34.92
2018-09-16T14:49:26.783Z,35.19
2018-09-16T14:51:53.815Z,36.14
2018-09-16T14:54:20.911Z,35.10
2018-09-16T14:56:47.963Z,35.20
2018-09-16T14:59:14.879Z,35.95
2018-09-16T15:01:41.866Z,36.25
2018-09-16T15:04:08.757Z,36.68
2018-09-16T15:06:35.744Z,38.63
2018-09-16T15:09:03.072Z,36.62
2018-09-16T15:11:30.258Z,36.73
2018-09-16T15:13:57.275Z,36.19
2018-09-16T15:16:24.151Z,36.75
2018-09-16T15:18:51.131Z,36.90
2018-09-16T15:21:18.078Z,37.71
2018-09-16T15:23:47.019Z,38.30
2018-09-16T15:26:13.882Z,38.40
2018-09-16T15:28:40.802Z,38.92
2018-09-16T15:31:07.748Z,37.98
2018-09-16T15:33:34.708Z,37.92
2018-09-16T15:36:01.712Z,38.71
2018-09-16T15:38:28.605Z,39.25
2018-09-16T15:40:55.574Z,39.46
2018-09-16T15:43:22.633Z,38.84
2018-09-16T15:45:49.672Z,38.38
2018-09-16T15:48:16.615Z,38.43
2018-09-16T15:50:43.440Z,38.99
2018-09-16T15:53:10.368Z,38.78
2018-09-16T15:55:37.335Z,38.99
2018-09-16T15:58:04.347Z,38.51
2018-09-16T16:00:31.246Z,38.84
2018-09-16T16:02:58.195Z,38.86
2018-09-16T16:05:25.161Z,38.08
2018-09-16T16:07:52.124Z,38.53
2018-09-16T16:10:18.991Z,38.04
2018-09-16T16:12:45.915Z,39.59
2018-09-16T16:15:12.887Z,38.45
2018-09-16T16:17:39.770Z,38.48
2018-09-16T16:20:06.691Z,39.16
2018-09-16T16:22:33.696Z,38.30
2018-09-16T16:25:00.592Z,38.88
2018-09-16T16:27:27.575Z,38.40
2018-09-16T16:29:54.578Z,38.87
2018-09-16T16:32:21.483Z,38.00
2018-09-16T16:34:48.574Z,38.73
2018-09-16T16:37:16.556Z,38.88
2018-09-16T16:39:43.513Z,38.68
2018-09-16T16:42:10.454Z,38.20
2018-09-16T16:44:37.545Z,38.55
2018-09-16T16:47:04.484Z,38.99
2018-09-16T16:49:31.404Z,38.86
2018-09-16T16:51:58.411Z,40.73
2018-09-16T16:54:25.318Z,40.54
2018-09-16T16:56:52.298Z,42.03
2018-09-16T16:59:19.279Z,42.17
2018-09-16T17:01:46.225Z,42.38
2018-09-16T17:04:13.175Z,42.77
2018-09-16T17:06:40.126Z,42.71
2018-09-16T17:09:07.991Z,43.62
2018-09-16T17:11:34.997Z,44.78
2018-09-16T17:14:01.947Z,44.85
2018-09-16T17:16:29.007Z,43.53
2018-09-16T17:18:56.014Z,45.48
2018-09-16T17:21:22.999Z,46.12
2018-09-16T17:23:49.886Z,46.61
2018-09-16T17:26:16.783Z,47.01
2018-09-16T17:28:43.771Z,46.15
2018-09-16T17:31:10.733Z,45.90
2018-09-16T17:33:37.685Z,47.81
2018-09-16T17:36:04.660Z,48.07
2018-09-16T17:38:31.594Z,48.88
2018-09-16T17:40:58.428Z,49.73
2018-09-16T17:43:25.399Z,50.64
2018-09-16T17:45:52.287Z,50.19
2018-09-16T17:48:19.230Z,50.86
2018-09-16T17:50:47.261Z,50.77
2018-09-16T17:53:14.151Z,50.30
2018-09-16T17:55:41.092Z,50.78
2018-09-16T17:58:08.147Z,51.49
2018-09-16T18:00:35.191Z,51.53
2018-09-16T18:03:02.059Z,50.78
2018-09-16T18:05:29.284Z,51.84
2018-09-16T18:07:56.195Z,50.97
2018-09-16T18:10:23.227Z,51.00
2018-09-16T18:12:50.169Z,52.06
2018-09-16T18:15:17.307Z,51.12
2018-09-16T18:17:44.349Z,49.41
2018-09-16T18:20:11.452Z,51.43
2018-09-16T18:22:38.568Z,52.25
2018-09-16T18:25:05.636Z,52.23
2018-09-16T18:27:32.684Z,54.15
2018-09-16T18:30:00.801Z,54.15
2018-09-16T18:32:27.956Z,53.68
2018-09-16T18:34:55.056Z,53.82
2018-09-16T18:37:21.933Z,55.13
2018-09-16T18:39:48.953Z,55.49
2018-09-16T18:42:15.883Z,55.30
2018-09-16T18:44:43.643Z,52.61
2018-09-16T18:47:10.673Z,54.76
2018-09-16T18:49:37.664Z,55.41
2018-09-16T18:52:04.640Z,53.20
2018-09-16T18:54:31.563Z,55.62
2018-09-16T18:56:58.560Z,53.81
2018-09-16T18:59:25.445Z,56.01
2018-09-16T19:01:52.382Z,59.00
2018-09-16T19:04:19.336Z,58.19
2018-09-16T19:06:46.309Z,56.82
2018-09-16T19:09:13.223Z,59.24
2018-09-16T19:11:40.820Z,58.91
2018-09-16T19:14:08.116Z,58.28
2018-09-16T19:16:35.021Z,59.32
2018-09-16T19:19:01.973Z,59.97
2018-09-16T19:21:28.831Z,60.44
2018-09-16T19:23:56.571Z,60.12
2018-09-16T19:26:23.461Z,59.91
2018-09-16T19:28:50.428Z,61.34
2018-09-16T19:31:17.377Z,62.62
2018-09-16T19:33:44.831Z,62.23
2018-09-16T19:36:11.799Z,63.86
2018-09-16T19:38:38.760Z,63.75
2018-09-16T19:41:05.756Z,62.77
2018-09-16T19:43:32.663Z,61.84
2018-09-16T19:45:59.623Z,62.11
2018-09-16T19:48:26.598Z,61.62
2018-09-16T19:50:53.535Z,60.17
2018-09-16T19:53:20.515Z,61.68
2018-09-16T19:55:47.440Z,61.50
2018-09-16T19:58:14.407Z,62.57
2018-09-16T20:00:41.381Z,63.70
2018-09-16T20:03:08.329Z,62.82
2018-09-16T20:05:35.316Z,62.96
2018-09-16T20:08:02.234Z,63.42
2018-09-16T20:10:29.204Z,63.32
2018-09-16T20:12:56.155Z,62.60
2018-09-16T20:15:23.131Z,63.75
2018-09-16T20:17:49.994Z,63.43
2018-09-16T20:20:16.969Z,63.61
2018-09-16T20:22:43.871Z,64.46
2018-09-16T20:25:10.828Z,65.03
2018-09-16T20:27:37.818Z,64.43
2018-09-16T20:30:04.689Z,64.93
2018-09-16T20:32:31.594Z,65.60
2018-09-16T20:34:58.547Z,65.57
2018-09-16T20:37:25.527Z,65.49
2018-09-16T20:39:52.448Z,65.21
2018-09-16T20:42:19.326Z,65.18
2018-09-16T20:44:46.280Z,65.06
2018-09-16T20:47:13.241Z,64.86
2018-09-16T20:49:40.218Z,64.88
2018-09-16T20:52:07.187Z,66.88
2018-09-16T20:54:34.136Z,66.00
2018-09-16T20:57:01.127Z,66.06
2018-09-16T20:59:28.031Z,64.83
2018-09-16T21:01:55.032Z,63.81
2018-09-16T21:04:21.884Z,67.77
2018-09-16T21:06:48.823Z,66.71
2018-09-16T21:09:16.607Z,67.69
2018-09-16T21:11:43.564Z,67.38
2018-09-16T21:14:10.452Z,66.93
2018-09-16T21:16:37.351Z,66.70
2018-09-16T21:19:04.324Z,66.17
2018-09-16T21:21:31.256Z,66.62
2018-09-16T21:23:58.140Z,66.59
2018-09-16T21:26:25.013Z,66.46
2018-09-16T21:28:51.953Z,67.08
2018-09-16T21:31:18.905Z,67.26
2018-09-16T21:33:45.864Z,67.10
2018-09-16T21:36:12.984Z,67.34
2018-09-16T21:38:39.846Z,67.95
2018-09-16T21:41:06.807Z,70.37
2018-09-16T21:43:33.768Z,68.50
2018-09-16T21:46:00.819Z,68.61
2018-09-16T21:48:27.783Z,68.79
2018-09-16T21:50:54.743Z,68.16
2018-09-16T21:53:21.724Z,68.84
2018-09-16T21:55:48.711Z,68.75
2018-09-16T21:58:16.387Z,70.07
2018-09-16T22:00:51.579Z,69.56
2018-09-16T22:03:18.614Z,68.27
2018-09-16T22:05:45.516Z,69.69
2018-09-16T22:08:12.484Z,71.28
2018-09-16T22:10:39.418Z,71.31
2018-09-16T22:13:06.409Z,72.68
2018-09-16T22:15:33.397Z,71.92
2018-09-16T22:18:00.238Z,74.62
2018-09-16T22:20:27.150Z,74.54
2018-09-16T22:22:54.099Z,72.44
2018-09-16T22:25:21.063Z,74.56
2018-09-16T22:27:48.054Z,75.22
2018-09-16T22:30:16.943Z,75.92
2018-09-16T22:32:43.932Z,75.38
2018-09-16T22:35:10.923Z,74.89
2018-09-16T22:37:37.795Z,76.31
2018-09-16T22:40:04.676Z,77.46
2018-09-16T22:42:31.625Z,78.28
2018-09-16T22:44:58.559Z,77.39
2018-09-16T22:47:28.631Z,78.64
2018-09-16T22:49:55.483Z,78.68
2018-09-16T22:52:22.435Z,78.58
2018-09-16T22:54:49.367Z,78.72
2018-09-16T22:57:16.323Z,77.13
2018-09-16T22:59:43.620Z,77.07
2018-09-16T23:02:10.543Z,76.66
2018-09-16T23:04:37.523Z,77.33
2018-09-16T23:07:04.460Z,77.59
2018-09-16T23:09:31.449Z,78.45
2018-09-16T23:11:58.395Z,79.76
2018-09-16T23:14:26.043Z,79.62
2018-09-16T23:16:53.049Z,79.18
2018-09-16T23:19:19.971Z,81.42
2018-09-16T23:21:46.952Z,81.39
2018-09-16T23:24:13.824Z,81.72
2018-09-16T23:26:40.756Z,80.76
2018-09-16T23:29:08.736Z,80.62
2018-09-16T23:31:35.682Z,79.71
2018-09-16T23:34:02.548Z,78.50
2018-09-16T23:36:29.483Z,76.83
2018-09-16T23:38:56.431Z,77.20
2018-09-16T23:41:23.413Z,77.47
2018-09-16T23:43:50.420Z,78.12
2018-09-16T23:46:17.323Z,78.85
2018-09-16T23:48:44.304Z,80.52
2018-09-16T23:51:11.270Z,78.41
2018-09-16T23:53:38.195Z,79.72
2018-09-16T23:56:05.088Z,79.68
2018-09-16T23:58:32.028Z,78.79
